Time;durP1;ratioP1;P1;durP2;ratioP2;P2;SDS_P1;SDS_P2;PMS_P1;PMS_P2;Temp;Humidity;BMP_temperature;BMP_pressure;BME280_temperature;BME280_humidity;BME280_pressure;Samples;Min_cycle;Max_cycle;Signal;HPM_P1;HPM_P2
2024/01/03 00:01:28;;;;;;;0.50;0.10;;;9.80;99.90;;;;;;5100235;28;20422;-72
2024/01/03 00:03:56;;;;;;;0.30;0.10;;;9.80;99.90;;;;;;5101478;28;20433;-72
2024/01/03 00:06:24;;;;;;;0.40;0.10;;;9.80;99.90;;;;;;5104346;28;20422;-72
2024/01/03 00:08:51;;;;;;;0.30;0.10;;;9.80;99.90;;;;;;5114633;28;20431;-73
2024/01/03 00:11:21;;;;;;;0.30;0.10;;;9.80;99.90;;;;;;5109477;28;20433;-71
2024/01/03 00:14:13;;;;;;;0.40;0.10;;;9.70;99.90;;;;;;5110645;28;20447;-71
2024/01/03 00:16:40;;;;;;;0.30;0.10;;;9.70;99.90;;;;;;5108068;28;20408;-72
2024/01/03 00:19:16;;;;;;;0.50;0.20;;;9.70;99.90;;;;;;5111923;28;20467;-72
2024/01/03 00:21:44;;;;;;;0.77;0.30;;;9.70;99.90;;;;;;5100644;28;20432;-71
2024/01/03 00:24:15;;;;;;;1.50;0.30;;;9.70;99.90;;;;;;5102518;28;20432;-72
2024/01/03 00:26:42;;;;;;;0.50;0.10;;;9.70;86.00;;;;;;5098297;28;20448;-72
2024/01/03 00:29:51;;;;;;;0.60;0.28;;;9.80;44.80;;;;;;5114116;28;20439;-72
2024/01/03 00:32:19;;;;;;;0.70;0.20;;;9.80;24.70;;;;;;5113826;28;20440;-71
2024/01/03 00:34:46;;;;;;;0.40;0.10;;;9.80;2.80;;;;;;5115192;28;20443;-71
2024/01/03 00:37:34;;;;;;;0.50;0.10;;;9.80;1.00;;;;;;5114347;28;20446;-71
2024/01/03 00:40:04;;;;;;;0.30;0.20;;;9.80;1.00;;;;;;5115134;28;20510;-72
2024/01/03 00:42:34;;;;;;;0.30;0.20;;;9.70;1.00;;;;;;5112150;28;20855;-72
2024/01/03 00:45:03;;;;;;;0.30;0.10;;;9.70;1.00;;;;;;5111965;28;20436;-72
2024/01/03 00:47:33;;;;;;;0.40;0.10;;;9.70;1.00;;;;;;5112766;28;20436;-71
2024/01/03 00:50:01;;;;;;;0.70;0.20;;;9.80;1.00;;;;;;5110898;28;20436;-72
2024/01/03 00:52:28;;;;;;;0.40;0.20;;;9.90;1.00;;;;;;5114551;28;20509;-71
2024/01/03 00:54:55;;;;;;;0.45;0.20;;;10.00;1.00;;;;;;5106118;28;20721;-72
2024/01/03 00:57:23;;;;;;;0.40;0.20;;;10.10;1.00;;;;;;5113221;28;20489;-71
2024/01/03 00:59:50;;;;;;;0.90;0.20;;;10.00;1.00;;;;;;5103890;28;20436;-73
2024/01/03 01:02:19;;;;;;;0.50;0.15;;;10.00;1.00;;;;;;5110762;28;20782;-71
2024/01/03 01:04:46;;;;;;;1.00;0.10;;;10.00;1.00;;;;;;5110760;28;20640;-73
2024/01/03 01:07:16;;;;;;;0.50;0.20;;;10.10;1.00;;;;;;5112496;28;20440;-72
2024/01/03 01:09:43;;;;;;;1.20;0.20;;;10.00;1.00;;;;;;5114663;28;20429;-72
2024/01/03 01:12:10;;;;;;;0.30;0.10;;;10.00;1.00;;;;;;5112121;28;20770;-72
2024/01/03 01:14:37;;;;;;;0.50;0.20;;;10.00;1.00;;;;;;5114404;28;20420;-70
2024/01/03 01:17:06;;;;;;;0.40;0.15;;;9.90;1.00;;;;;;5116042;28;20507;-72
2024/01/03 01:19:34;;;;;;;0.30;0.10;;;9.90;1.00;;;;;;5115055;28;20411;-73
2024/01/03 01:22:01;;;;;;;0.80;0.20;;;9.80;1.00;;;;;;5115508;28;20790;-72
2024/01/03 01:24:28;;;;;;;0.40;0.10;;;9.80;1.00;;;;;;5114981;28;20462;-73
2024/01/03 01:26:57;;;;;;;0.60;0.10;;;9.80;1.00;;;;;;5113183;28;20424;-73
2024/01/03 01:29:24;;;;;;;1.20;0.10;;;9.70;1.00;;;;;;5114231;28;20435;-72
2024/01/03 01:31:51;;;;;;;0.40;0.15;;;9.70;1.00;;;;;;5113000;28;20450;-72
2024/01/03 01:34:18;;;;;;;0.40;0.20;;;9.70;1.00;;;;;;5112201;28;20428;-71
2024/01/03 01:36:47;;;;;;;0.40;0.10;;;9.60;1.00;;;;;;5101499;28;20424;-71
2024/01/03 01:39:14;;;;;;;0.40;0.13;;;9.60;1.00;;;;;;5104846;28;20420;-73
2024/01/03 01:41:41;;;;;;;0.40;0.10;;;9.60;1.00;;;;;;5112266;28;20598;-72
2024/01/03 01:44:08;;;;;;;0.45;0.10;;;9.50;1.00;;;;;;5110838;28;20430;-73
2024/01/03 01:46:36;;;;;;;0.40;0.10;;;9.50;1.00;;;;;;5107162;28;20506;-72
2024/01/03 01:49:06;;;;;;;0.40;0.10;;;9.50;1.00;;;;;;5108305;28;20435;-72
2024/01/03 01:51:35;;;;;;;0.80;0.20;;;9.60;1.00;;;;;;5092309;28;20455;-74
2024/01/03 01:54:05;;;;;;;0.73;0.20;;;9.60;1.00;;;;;;5097717;28;20411;-72
2024/01/03 01:56:33;;;;;;;1.00;0.20;;;9.60;1.00;;;;;;5110071;28;20435;-72
2024/01/03 01:59:00;;;;;;;0.40;0.20;;;9.60;1.00;;;;;;5089995;28;20429;-71
2024/01/03 02:01:29;;;;;;;0.40;0.20;;;9.60;1.00;;;;;;5090548;28;20534;-72
2024/01/03 02:03:57;;;;;;;0.40;0.20;;;9.60;9.50;;;;;;5091384;28;20593;-72
2024/01/03 02:06:24;;;;;;;0.50;0.10;;;9.60;14.40;;;;;;5099334;28;20427;-73
2024/01/03 02:08:51;;;;;;;0.60;0.10;;;9.60;9.30;;;;;;5112084;28;20423;-72
2024/01/03 02:11:20;;;;;;;0.40;0.17;;;9.60;7.40;;;;;;5112592;28;20719;-72
2024/01/03 02:13:47;;;;;;;0.30;0.10;;;9.60;2.40;;;;;;5112419;28;20436;-72
2024/01/03 02:16:14;;;;;;;0.30;0.10;;;9.50;1.00;;;;;;5112830;28;20412;-72
2024/01/03 02:18:42;;;;;;;0.30;0.10;;;9.50;1.00;;;;;;5113018;28;20404;-73
2024/01/03 02:21:13;;;;;;;0.50;0.10;;;9.50;1.00;;;;;;5111664;28;20439;-72
2024/01/03 02:23:40;;;;;;;0.32;0.10;;;9.50;1.00;;;;;;5112164;28;20542;-72
2024/01/03 02:26:08;;;;;;;0.40;0.10;;;9.50;1.00;;;;;;5112102;28;20459;-72
2024/01/03 02:28:35;;;;;;;0.30;0.10;;;9.50;1.00;;;;;;5112234;28;20522;-73
2024/01/03 02:31:02;;;;;;;0.50;0.10;;;9.50;1.00;;;;;;5110011;28;20878;-73
2024/01/03 02:33:29;;;;;;;0.30;0.10;;;9.50;1.00;;;;;;5111593;28;20414;-72
2024/01/03 02:35:56;;;;;;;0.30;0.10;;;9.40;1.00;;;;;;5113262;28;20696;-73
2024/01/03 02:38:24;;;;;;;0.30;0.10;;;9.30;1.00;;;;;;5114503;28;20424;-72
2024/01/03 02:40:51;;;;;;;0.30;0.10;;;9.30;1.00;;;;;;5116102;28;20426;-72
2024/01/03 02:43:18;;;;;;;0.30;0.10;;;9.30;1.00;;;;;;5116516;28;20477;-72
2024/01/03 02:45:45;;;;;;;0.52;0.10;;;9.30;1.00;;;;;;5116082;28;20412;-72
2024/01/03 02:48:15;;;;;;;0.30;0.10;;;9.40;1.00;;;;;;5114102;28;20432;-72
2024/01/03 02:50:47;;;;;;;0.30;0.10;;;9.40;1.00;;;;;;5116261;28;20431;-73
2024/01/03 02:53:14;;;;;;;0.30;0.10;;;9.40;3.50;;;;;;5114799;28;20946;-72
2024/01/03 02:55:43;;;;;;;0.30;0.10;;;9.40;24.20;;;;;;5115866;28;20514;-73
2024/01/03 02:58:10;;;;;;;0.30;0.10;;;9.40;19.20;;;;;;5117009;28;20416;-72
2024/01/03 03:00:39;;;;;;;0.30;0.10;;;9.30;48.40;;;;;;5117228;28;20473;-72
2024/01/03 03:03:06;;;;;;;0.70;0.10;;;9.10;71.10;;;;;;5116469;28;20753;-73
2024/01/03 03:05:33;;;;;;;0.30;0.10;;;9.10;98.30;;;;;;5116349;28;20424;-72
2024/01/03 03:08:00;;;;;;;0.30;0.10;;;9.00;99.90;;;;;;5115830;28;20503;-73
2024/01/03 03:10:27;;;;;;;0.30;0.10;;;9.10;99.90;;;;;;5115758;28;20501;-72
2024/01/03 03:12:55;;;;;;;0.30;0.10;;;9.10;99.90;;;;;;5115597;28;20419;-72
2024/01/03 03:15:22;;;;;;;0.40;0.10;;;9.10;99.90;;;;;;5114954;28;20485;-72
2024/01/03 03:17:49;;;;;;;0.30;0.10;;;9.10;99.90;;;;;;5116459;28;20424;-72
2024/01/03 03:20:16;;;;;;;0.30;0.10;;;9.10;99.90;;;;;;5115896;28;20447;-73
2024/01/03 03:22:46;;;;;;;0.80;0.10;;;9.00;99.90;;;;;;5116035;28;20412;-72
2024/01/03 03:25:16;;;;;;;0.40;0.10;;;8.90;99.90;;;;;;5115205;28;20431;-72
2024/01/03 03:27:46;;;;;;;0.30;0.10;;;8.80;99.90;;;;;;5116194;28;20420;-72
2024/01/03 03:30:15;;;;;;;0.30;0.10;;;8.80;99.90;;;;;;5115115;28;20778;-73
2024/01/03 03:32:44;;;;;;;0.30;0.10;;;8.80;99.90;;;;;;5115218;28;20528;-73
2024/01/03 03:35:11;;;;;;;0.40;0.10;;;8.70;99.90;;;;;;5116092;28;20486;-72
2024/01/03 03:37:39;;;;;;;0.30;0.10;;;8.80;99.90;;;;;;5115399;28;20424;-72
2024/01/03 03:40:07;;;;;;;0.30;0.10;;;8.80;99.90;;;;;;5115517;28;20427;-72
2024/01/03 03:42:34;;;;;;;0.30;0.10;;;8.80;99.90;;;;;;5114973;28;20477;-72
2024/01/03 03:45:01;;;;;;;0.30;0.10;;;8.80;99.90;;;;;;5115352;28;20489;-72
2024/01/03 03:47:30;;;;;;;0.40;0.10;;;8.80;99.90;;;;;;5115545;28;20424;-73
2024/01/03 03:49:57;;;;;;;0.80;0.10;;;8.80;99.90;;;;;;5115656;28;20481;-72
2024/01/03 03:52:24;;;;;;;0.30;0.10;;;8.80;99.90;;;;;;5115306;28;20477;-72
2024/01/03 03:54:51;;;;;;;0.30;0.10;;;8.80;99.90;;;;;;5115838;28;20808;-72
2024/01/03 03:57:18;;;;;;;0.60;0.10;;;8.80;99.90;;;;;;5114937;28;20416;-72
2024/01/03 03:59:45;;;;;;;0.40;0.10;;;8.80;99.90;;;;;;5113557;28;20423;-71
2024/01/03 04:02:12;;;;;;;0.40;0.10;;;8.80;99.90;;;;;;5114845;28;20523;-72
2024/01/03 04:04:40;;;;;;;0.40;0.10;;;8.90;99.90;;;;;;5114256;28;20489;-70
2024/01/03 04:07:08;;;;;;;0.40;0.10;;;8.90;99.90;;;;;;5113848;28;20717;-71
2024/01/03 04:09:35;;;;;;;0.40;0.10;;;8.90;99.90;;;;;;5110036;28;20712;-71
2024/01/03 04:12:02;;;;;;;1.00;0.10;;;8.90;99.90;;;;;;5113094;28;20434;-72
2024/01/03 04:14:29;;;;;;;0.40;0.10;;;8.90;99.90;;;;;;5112676;28;20450;-72
2024/01/03 04:16:56;;;;;;;1.20;0.20;;;9.10;93.10;;;;;;5103480;28;20443;-72
2024/01/03 04:19:23;;;;;;;0.40;0.20;;;9.10;55.10;;;;;;5098601;28;20453;-72
2024/01/03 04:21:52;;;;;;;0.40;0.10;;;9.10;38.00;;;;;;5094701;28;20522;-72
2024/01/03 04:24:19;;;;;;;1.58;0.20;;;9.00;35.90;;;;;;5094927;28;20449;-72
2024/01/03 04:26:46;;;;;;;0.40;0.20;;;9.00;10.10;;;;;;5096087;28;20785;-71
2024/01/03 04:29:13;;;;;;;1.35;0.20;;;9.10;1.00;;;;;;5114014;28;20412;-71
2024/01/03 04:31:43;;;;;;;0.80;0.10;;;9.10;1.00;;;;;;5114697;28;20416;-72
2024/01/03 04:34:10;;;;;;;0.50;0.17;;;9.10;1.00;;;;;;5114179;28;20740;-72
2024/01/03 04:36:37;;;;;;;0.40;0.10;;;9.10;1.00;;;;;;5114780;28;20424;-72
2024/01/03 04:39:06;;;;;;;0.70;0.10;;;9.20;1.00;;;;;;5114041;28;20442;-72
2024/01/03 04:41:33;;;;;;;0.40;0.10;;;9.10;1.00;;;;;;5114505;28;20420;-72
2024/01/03 04:44:00;;;;;;;1.90;0.20;;;9.00;1.00;;;;;;5097220;28;20437;-72
2024/01/03 04:46:27;;;;;;;0.40;0.10;;;9.00;1.00;;;;;;5095317;28;20430;-72
2024/01/03 04:48:54;;;;;;;0.80;0.20;;;9.00;1.00;;;;;;5094208;28;20784;-72
2024/01/03 04:51:22;;;;;;;0.30;0.10;;;9.00;1.00;;;;;;5094001;28;20425;-73
2024/01/03 04:53:50;;;;;;;0.50;0.20;;;9.10;1.00;;;;;;5094091;28;20425;-73
2024/01/03 04:56:21;;;;;;;0.40;0.20;;;9.20;1.00;;;;;;5091679;28;20418;-74
2024/01/03 04:58:48;;;;;;;0.50;0.20;;;9.10;1.00;;;;;;5111685;28;20423;-73
2024/01/03 05:01:15;;;;;;;1.00;0.10;;;9.10;1.00;;;;;;5112464;28;20420;-74
2024/01/03 05:03:42;;;;;;;0.60;0.10;;;9.00;1.00;;;;;;5112632;28;20426;-73
2024/01/03 05:06:10;;;;;;;0.40;0.20;;;9.00;1.00;;;;;;5098180;28;20421;-73
2024/01/03 05:08:37;;;;;;;0.40;0.10;;;9.10;1.00;;;;;;5107870;28;20440;-72
2024/01/03 05:11:04;;;;;;;0.80;0.10;;;9.00;1.00;;;;;;5109450;28;20873;-73
2024/01/03 05:13:32;;;;;;;0.80;0.10;;;9.00;1.00;;;;;;5112092;28;20514;-72
2024/01/03 05:15:59;;;;;;;0.30;0.10;;;9.00;1.00;;;;;;5111363;28;20427;-72
2024/01/03 05:18:27;;;;;;;0.50;0.20;;;9.00;1.00;;;;;;5112793;28;20432;-72
2024/01/03 05:20:54;;;;;;;1.00;0.20;;;9.10;1.00;;;;;;5111417;28;20506;-72
2024/01/03 05:23:21;;;;;;;0.52;0.20;;;9.30;1.00;;;;;;5109591;28;20420;-72
2024/01/03 05:25:48;;;;;;;0.60;0.20;;;9.40;1.00;;;;;;5111178;28;20746;-72
2024/01/03 05:28:17;;;;;;;0.80;0.20;;;9.40;1.00;;;;;;5110671;28;20432;-73
2024/01/03 05:30:46;;;;;;;0.90;0.10;;;9.30;1.00;;;;;;5111893;28;20420;-73
2024/01/03 05:33:15;;;;;;;1.60;0.20;;;9.40;1.00;;;;;;5111066;28;20505;-74
2024/01/03 05:35:42;;;;;;;0.73;0.10;;;9.40;1.00;;;;;;5112066;28;20872;-73
2024/01/03 05:38:11;;;;;;;2.10;0.20;;;9.40;1.00;;;;;;5113012;28;20424;-73
2024/01/03 05:40:38;;;;;;;1.13;0.20;;;9.40;99.90;;;;;;5112273;28;20423;-73
2024/01/03 05:43:05;;;;;;;0.70;0.10;;;9.40;1.00;;;;;;5113226;28;20424;-73
2024/01/03 05:45:32;;;;;;;0.40;0.20;;;9.40;1.00;;;;;;5112739;28;20442;-73
2024/01/03 05:48:00;;;;;;;0.95;0.20;;;9.40;1.00;;;;;;5110889;28;20434;-73
2024/01/03 05:50:27;;;;;;;0.50;0.20;;;9.40;99.90;;;;;;5112000;28;20427;-73
2024/01/03 05:52:54;;;;;;;1.02;0.13;;;9.40;1.00;;;;;;5111900;28;20412;-73
2024/01/03 05:55:21;;;;;;;0.30;0.10;;;9.40;99.90;;;;;;5112123;28;20481;-74
2024/01/03 05:57:48;;;;;;;0.40;0.20;;;9.40;1.00;;;;;;5111493;28;20412;-73
2024/01/03 06:00:16;;;;;;;0.50;0.10;;;9.50;99.90;;;;;;5107686;28;20846;-72
2024/01/03 06:02:43;;;;;;;1.42;0.20;;;9.60;99.90;;;;;;5108858;28;21022;-73
2024/01/03 06:05:18;;;;;;;0.30;0.20;;;9.60;99.90;;;;;;5110445;28;20428;-73
2024/01/03 06:07:45;;;;;;;1.20;0.20;;;9.70;99.90;;;;;;5111035;28;20412;-73
2024/01/03 06:10:12;;;;;;;1.20;0.32;;;9.90;99.90;;;;;;5111919;28;20923;-73
2024/01/03 06:12:40;;;;;;;0.80;0.20;;;9.80;99.90;;;;;;5120424;22;20510;-59
2024/01/03 06:15:07;;;;;;;0.40;0.20;;;9.70;99.90;;;;;;5112284;28;20583;-59
2024/01/03 06:17:35;;;;;;;0.70;0.10;;;9.60;99.90;;;;;;5130318;22;20864;-73
2024/01/03 06:20:03;;;;;;;0.40;0.10;;;9.60;1.00;;;;;;5125500;27;20502;-73
2024/01/03 06:22:31;;;;;;;0.70;0.20;;;9.80;1.00;;;;;;5136991;27;20499;-73
2024/01/03 06:24:58;;;;;;;1.10;0.20;;;9.80;1.00;;;;;;5124098;27;20428;-73
2024/01/03 06:27:25;;;;;;;0.43;0.10;;;9.80;1.00;;;;;;5116046;28;20422;-73
2024/01/03 06:29:52;;;;;;;0.80;0.20;;;9.80;1.00;;;;;;5116077;28;20438;-73
2024/01/03 06:32:19;;;;;;;0.55;0.17;;;9.90;1.00;;;;;;5115447;28;20805;-73
2024/01/03 06:34:46;;;;;;;0.68;0.17;;;9.90;1.00;;;;;;5116387;28;20436;-73
2024/01/03 06:37:19;;;;;;;0.60;0.20;;;9.70;1.00;;;;;;5129568;27;20471;-73
2024/01/03 06:39:49;;;;;;;0.50;0.20;;;9.70;1.00;;;;;;5134333;27;20411;-73
2024/01/03 06:42:16;;;;;;;0.50;0.20;;;9.60;1.00;;;;;;5134885;27;20434;-73
2024/01/03 06:44:43;;;;;;;0.60;0.10;;;9.50;1.00;;;;;;5134822;27;20430;-73
2024/01/03 06:47:10;;;;;;;0.40;0.10;;;9.50;1.00;;;;;;5134884;27;20422;-73
2024/01/03 06:49:37;;;;;;;0.50;0.10;;;9.40;1.00;;;;;;5135286;27;20422;-73
2024/01/03 06:52:05;;;;;;;0.50;0.20;;;9.40;1.00;;;;;;5136754;27;20410;-73
2024/01/03 06:54:32;;;;;;;0.30;0.20;;;9.50;1.00;;;;;;5134493;27;20861;-72
2024/01/03 06:57:00;;;;;;;0.80;0.20;;;9.60;1.00;;;;;;5132807;27;20430;-73
2024/01/03 06:59:27;;;;;;;0.50;0.20;;;9.70;1.00;;;;;;5134435;27;20418;-72
2024/01/03 07:01:56;;;;;;;0.90;0.10;;;9.60;1.00;;;;;;5136367;27;20433;-72
2024/01/03 07:04:25;;;;;;;0.30;0.10;;;9.60;1.00;;;;;;5135202;27;21493;-71
2024/01/03 07:06:52;;;;;;;1.70;0.20;;;9.60;1.00;;;;;;5136857;27;20490;-72
2024/01/03 07:09:21;;;;;;;0.30;0.10;;;9.50;1.00;;;;;;5136477;27;20426;-72
2024/01/03 07:11:48;;;;;;;0.70;0.20;;;9.50;1.00;;;;;;5136902;27;20813;-71
2024/01/03 07:14:16;;;;;;;0.40;0.10;;;9.50;1.00;;;;;;5117557;27;20544;-72
2024/01/03 07:16:43;;;;;;;0.40;0.20;;;9.50;1.00;;;;;;5114168;28;20571;-72
2024/01/03 07:19:14;;;;;;;0.50;0.13;;;9.60;1.00;;;;;;5132541;27;20581;-72
2024/01/03 07:21:41;;;;;;;0.57;0.10;;;9.70;1.00;;;;;;5132647;27;20438;-72
2024/01/03 07:24:08;;;;;;;1.20;0.10;;;9.80;99.90;;;;;;5133406;27;20429;-72
2024/01/03 07:26:35;;;;;;;1.10;0.10;;;9.80;99.90;;;;;;5134990;27;20409;-72
2024/01/03 07:29:02;;;;;;;0.38;0.20;;;9.90;99.90;;;;;;5134938;27;20475;-74
2024/01/03 07:31:30;;;;;;;1.10;0.20;;;9.90;99.90;;;;;;5134242;27;20780;-74
2024/01/03 07:33:58;;;;;;;0.50;0.10;;;10.00;99.90;;;;;;5134855;27;20430;-74
2024/01/03 07:36:25;;;;;;;1.85;0.20;;;10.00;56.20;;;;;;5135596;27;20426;-74
2024/01/03 07:38:52;;;;;;;0.40;0.10;;;10.00;99.90;;;;;;5135325;27;20427;-75
2024/01/03 07:41:20;;;;;;;0.40;0.20;;;9.90;99.90;;;;;;5135063;27;20453;-75
2024/01/03 07:43:47;;;;;;;0.77;0.13;;;10.00;99.90;;;;;;5134714;27;20526;-74
2024/01/03 07:46:18;;;;;;;0.40;0.10;;;10.00;99.90;;;;;;5132872;27;20422;-74
2024/01/03 07:48:47;;;;;;;1.10;0.10;;;9.90;99.90;;;;;;5132902;27;20414;-75
2024/01/03 07:51:20;;;;;;;0.40;0.10;;;9.90;99.90;;;;;;5130991;27;20458;-75
2024/01/03 07:53:48;;;;;;;0.30;0.20;;;10.00;99.90;;;;;;5123721;27;20414;-75
2024/01/03 07:56:15;;;;;;;0.40;0.10;;;9.90;99.90;;;;;;5135445;27;20737;-74
2024/01/03 07:58:46;;;;;;;0.30;0.10;;;9.90;99.90;;;;;;5135861;27;20437;-73
2024/01/03 08:01:13;;;;;;;1.23;0.17;;;9.90;1.00;;;;;;5133039;27;20739;-77
2024/01/03 08:03:40;;;;;;;0.60;0.20;;;9.90;1.00;;;;;;5133598;27;20414;-76
2024/01/03 08:06:11;;;;;;;0.40;0.20;;;9.90;1.00;;;;;;5135351;27;20517;-76
2024/01/03 08:08:38;;;;;;;0.30;0.10;;;9.90;1.00;;;;;;5136504;27;20410;-76
2024/01/03 08:11:06;;;;;;;0.43;0.10;;;9.90;1.00;;;;;;5136518;27;20432;-75
2024/01/03 08:13:36;;;;;;;1.30;0.30;;;9.90;1.00;;;;;;5132440;27;20430;-75
2024/01/03 08:16:03;;;;;;;0.40;0.10;;;9.90;1.00;;;;;;5128329;27;20419;-76
2024/01/03 08:18:30;;;;;;;0.30;0.10;;;10.00;1.00;;;;;;5131494;27;20442;-76
2024/01/03 08:21:00;;;;;;;0.90;0.20;;;10.10;1.00;;;;;;5125880;27;20688;-76
2024/01/03 08:23:31;;;;;;;0.50;0.20;;;10.10;1.00;;;;;;5133235;27;20501;-76
2024/01/03 08:26:00;;;;;;;0.40;0.10;;;10.10;1.00;;;;;;5134255;27;20517;-76
2024/01/03 08:28:28;;;;;;;1.08;0.20;;;10.20;1.00;;;;;;5134596;27;20845;-76
2024/01/03 08:30:55;;;;;;;0.50;0.20;;;10.20;1.00;;;;;;5134081;27;20406;-76
2024/01/03 08:33:22;;;;;;;0.60;0.20;;;10.30;1.00;;;;;;5134171;27;20752;-73
2024/01/03 08:35:49;;;;;;;0.80;0.20;;;10.30;1.00;;;;;;5133938;27;20427;-73
2024/01/03 08:38:19;;;;;;;1.60;0.20;;;10.40;99.90;;;;;;5132589;27;20796;-74
2024/01/03 08:40:49;;;;;;;0.90;0.20;;;10.50;99.90;;;;;;5133492;27;20529;-75
2024/01/03 08:43:19;;;;;;;0.50;0.20;;;10.60;99.90;;;;;;5134567;27;20855;-74
2024/01/03 08:45:46;;;;;;;0.50;0.20;;;10.80;99.90;;;;;;5135240;27;20426;-74
2024/01/03 08:48:13;;;;;;;0.30;0.10;;;10.70;99.90;;;;;;5132108;27;20422;-74
2024/01/03 08:50:41;;;;;;;0.70;0.10;;;10.70;1.00;;;;;;5133596;27;20424;-74
2024/01/03 08:53:08;;;;;;;1.20;0.20;;;10.60;1.00;;;;;;5133815;27;20434;-75
2024/01/03 08:55:35;;;;;;;1.15;0.20;;;10.50;1.00;;;;;;5133351;27;20753;-75
2024/01/03 08:58:04;;;;;;;0.43;0.13;;;10.40;1.00;;;;;;5133787;27;20505;-74
2024/01/03 09:00:31;;;;;;;0.50;0.20;;;10.40;1.00;;;;;;5130600;27;20430;-74
2024/01/03 09:03:00;;;;;;;0.40;0.10;;;10.30;1.00;;;;;;5130324;27;20916;-76
2024/01/03 09:05:28;;;;;;;1.20;0.20;;;10.30;1.00;;;;;;5115366;27;20439;-73
2024/01/03 09:07:55;;;;;;;0.35;0.10;;;10.40;1.00;;;;;;5115508;27;20498;-73
2024/01/03 09:10:22;;;;;;;0.40;0.20;;;10.40;1.00;;;;;;5132514;27;20709;-73
2024/01/03 09:12:49;;;;;;;0.50;0.10;;;10.40;1.00;;;;;;5131012;27;20521;-72
2024/01/03 09:15:24;;;;;;;0.60;0.20;;;10.60;1.00;;;;;;5131625;27;20427;-73
2024/01/03 09:17:53;;;;;;;0.40;0.10;;;10.70;1.00;;;;;;5132127;27;20422;-72
2024/01/03 09:20:20;;;;;;;0.30;0.10;;;10.70;1.00;;;;;;5127444;27;20430;-71
2024/01/03 09:22:47;;;;;;;0.50;0.10;;;10.70;1.00;;;;;;5131766;27;20426;-71
2024/01/03 09:25:15;;;;;;;2.88;0.30;;;10.70;1.00;;;;;;5126297;27;20685;-74
2024/01/03 09:27:42;;;;;;;0.60;0.15;;;10.70;1.00;;;;;;5127039;27;20485;-72
2024/01/03 09:30:13;;;;;;;1.10;0.20;;;10.70;1.00;;;;;;5124371;27;20487;-72
2024/01/03 09:32:42;;;;;;;0.60;0.20;;;10.70;1.00;;;;;;5111148;28;20423;-73
2024/01/03 09:35:12;;;;;;;0.40;0.20;;;10.70;1.00;;;;;;5128979;27;21013;-73
2024/01/03 09:37:39;;;;;;;0.50;0.20;;;10.70;1.00;;;;;;5128861;27;20430;-71
2024/01/03 09:40:09;;;;;;;0.40;0.10;;;10.70;1.00;;;;;;5132672;27;20465;-72
2024/01/03 09:42:37;;;;;;;0.50;0.20;;;10.70;1.00;;;;;;5132875;27;20419;-72
2024/01/03 09:45:05;;;;;;;0.50;0.10;;;10.80;1.00;;;;;;5132786;27;20430;-72
2024/01/03 09:47:35;;;;;;;0.90;0.10;;;10.90;1.00;;;;;;5132891;27;20430;-72
2024/01/03 09:50:05;;;;;;;1.00;0.10;;;10.80;1.00;;;;;;5128810;27;20419;-73
2024/01/03 09:52:36;;;;;;;0.30;0.20;;;10.70;1.00;;;;;;5132927;27;20442;-72
2024/01/03 09:55:10;;;;;;;0.30;0.10;;;10.70;1.00;;;;;;5124697;27;20723;-73
2024/01/03 09:57:38;;;;;;;0.80;0.10;;;10.70;1.00;;;;;;5121499;27;20816;-72
2024/01/03 10:00:07;;;;;;;0.40;0.10;;;10.60;1.00;;;;;;5115246;28;20481;-72
2024/01/03 10:02:34;;;;;;;1.20;0.10;;;10.60;1.00;;;;;;5132960;27;20418;-73
2024/01/03 10:05:01;;;;;;;0.30;0.10;;;10.70;1.00;;;;;;5129958;27;20487;-73
2024/01/03 10:07:34;;;;;;;0.40;0.10;;;10.70;1.00;;;;;;5127455;28;20431;-73
2024/01/03 10:10:01;;;;;;;0.40;0.10;;;10.60;1.00;;;;;;5130035;28;20437;-73
2024/01/03 10:12:32;;;;;;;0.40;0.20;;;10.70;1.00;;;;;;5135345;28;20445;-73
2024/01/03 10:15:15;;;;;;;1.50;0.30;;;10.70;1.00;;;;;;5133937;28;20430;-73
2024/01/03 10:17:45;;;;;;;1.17;0.20;;;10.70;1.00;;;;;;5130071;28;20768;-73
2024/01/03 10:20:26;;;;;;;0.60;0.20;;;10.60;1.00;;;;;;5119539;28;20446;-74
2024/01/03 10:23:09;;;;;;;0.50;0.20;;;10.70;1.00;;;;;;5120078;28;20564;-73
2024/01/03 10:25:36;;;;;;;0.90;0.20;;;10.60;1.00;;;;;;5113442;28;21000;-73
2024/01/03 10:28:05;;;;;;;0.30;0.10;;;10.60;1.00;;;;;;5131075;28;20428;-73
2024/01/03 10:30:32;;;;;;;0.50;0.10;;;10.70;1.00;;;;;;5134140;28;20517;-73
2024/01/03 10:33:02;;;;;;;0.30;0.10;;;10.70;1.00;;;;;;5127669;28;20995;-73
2024/01/03 10:35:30;;;;;;;0.80;0.30;;;10.60;1.00;;;;;;5122546;28;20562;-73
2024/01/03 10:37:59;;;;;;;0.70;0.20;;;10.60;1.00;;;;;;5120241;28;20851;-73
2024/01/03 10:40:31;;;;;;;0.50;0.20;;;10.60;1.00;;;;;;5115454;28;20422;-73
2024/01/03 10:42:59;;;;;;;1.10;0.10;;;10.50;1.00;;;;;;5115868;28;20486;-74
2024/01/03 10:45:27;;;;;;;0.40;0.20;;;10.40;1.00;;;;;;5122029;28;20416;-73
2024/01/03 10:47:55;;;;;;;0.50;0.10;;;10.40;1.00;;;;;;5122275;28;20738;-73
2024/01/03 10:50:22;;;;;;;0.40;0.10;;;10.50;1.00;;;;;;5125986;28;20437;-74
2024/01/03 10:52:55;;;;;;;0.30;0.10;;;10.50;1.00;;;;;;5131673;28;20414;-73
2024/01/03 10:55:33;;;;;;;0.40;0.20;;;10.60;1.00;;;;;;5131181;28;20430;-72
2024/01/03 10:58:02;;;;;;;1.10;0.20;;;10.80;1.00;;;;;;5131557;27;20407;-72
2024/01/03 11:00:41;;;;;;;0.30;0.10;;;11.00;1.00;;;;;;5116637;27;20424;-73
2024/01/03 11:03:19;;;;;;;0.60;0.20;;;11.00;1.00;;;;;;5114027;27;20682;-73
2024/01/03 11:05:57;;;;;;;0.80;0.10;;;11.10;1.00;;;;;;5130513;27;20850;-73
2024/01/03 11:08:34;;;;;;;0.40;0.10;;;11.20;1.00;;;;;;5134561;27;20457;-73
2024/01/03 11:11:03;;;;;;;0.40;0.10;;;11.30;1.00;;;;;;5130763;27;20454;-73
2024/01/03 11:13:32;;;;;;;0.70;0.20;;;11.30;1.00;;;;;;5116568;28;20412;-74
2024/01/03 11:16:00;;;;;;;0.43;0.20;;;11.30;1.00;;;;;;5125638;27;20430;-73
2024/01/03 11:18:50;;;;;;;0.50;0.17;;;11.40;99.90;;;;;;5136205;27;20423;-72
2024/01/03 11:21:42;;;;;;;0.98;0.30;;;11.40;99.90;;;;;;5135247;27;20513;-73
2024/01/03 11:24:52;;;;;;;1.20;0.60;;;11.50;99.90;;;;;;5096867;27;20534;-73
2024/01/03 11:27:23;;;;;;;0.50;0.10;;;11.60;99.90;;;;;;5115249;27;20886;-74
2024/01/03 11:29:53;;;;;;;0.43;0.10;;;11.60;1.00;;;;;;5133803;27;20899;-73
2024/01/03 11:32:35;;;;;;;0.60;0.10;;;11.50;1.00;;;;;;5134136;27;20971;-73
2024/01/03 11:35:04;;;;;;;0.30;0.20;;;11.50;3.30;;;;;;5134236;27;20430;-73
2024/01/03 11:37:38;;;;;;;0.30;0.10;;;11.50;99.90;;;;;;5134272;27;20423;-73
2024/01/03 11:40:08;;;;;;;0.60;0.10;;;11.40;1.00;;;;;;5134690;27;20430;-73
2024/01/03 11:42:43;;;;;;;0.30;0.10;;;11.50;99.90;;;;;;5134901;27;20503;-72
2024/01/03 11:45:12;;;;;;;1.80;0.30;;;11.50;99.90;;;;;;5135114;27;20517;-74
2024/01/03 11:47:41;;;;;;;0.50;0.20;;;11.60;1.00;;;;;;5133891;27;20426;-73
2024/01/03 11:50:09;;;;;;;1.08;0.30;;;11.60;64.30;;;;;;5131895;27;20732;-73
2024/01/03 11:52:38;;;;;;;0.90;0.20;;;11.60;99.90;;;;;;5126262;27;20419;-73
2024/01/03 11:55:07;;;;;;;0.40;0.10;;;11.50;1.00;;;;;;5124890;27;20436;-73
2024/01/03 11:57:37;;;;;;;0.50;0.20;;;11.50;1.00;;;;;;5131958;27;20843;-72
2024/01/03 12:00:06;;;;;;;0.40;0.20;;;11.60;99.90;;;;;;5134726;27;20411;-73
2024/01/03 12:02:33;;;;;;;0.40;0.20;;;11.50;1.00;;;;;;5135072;27;20515;-72
2024/01/03 12:05:01;;;;;;;0.40;0.10;;;11.50;56.80;;;;;;5133525;27;20717;-72
2024/01/03 12:07:29;;;;;;;0.40;0.10;;;11.60;99.90;;;;;;5126654;27;20500;-73
2024/01/03 12:09:57;;;;;;;0.40;0.10;;;11.60;99.90;;;;;;5113496;28;20423;-73
2024/01/03 12:12:25;;;;;;;0.80;0.20;;;11.60;1.00;;;;;;5132523;27;20438;-73
2024/01/03 12:14:54;;;;;;;0.80;0.20;;;11.60;36.70;;;;;;5133896;27;20419;-73
2024/01/03 12:17:26;;;;;;;0.40;0.10;;;11.70;99.90;;;;;;5133884;27;20434;-72
2024/01/03 12:20:06;;;;;;;0.40;0.10;;;11.60;1.00;;;;;;5134381;27;20456;-73
2024/01/03 12:22:34;;;;;;;0.40;0.20;;;11.50;1.00;;;;;;5133575;27;20517;-73
2024/01/03 12:25:01;;;;;;;0.40;0.20;;;11.50;1.00;;;;;;5136322;27;20411;-73
2024/01/03 12:27:30;;;;;;;0.88;0.20;;;11.50;1.00;;;;;;5133908;27;20444;-73
2024/01/03 12:30:17;;;;;;;1.20;0.20;;;11.40;1.00;;;;;;5124348;27;20515;-73
2024/01/03 12:32:45;;;;;;;0.50;0.10;;;11.30;1.00;;;;;;5113626;28;20452;-73
2024/01/03 12:35:13;;;;;;;0.40;0.10;;;11.30;1.00;;;;;;5114082;28;20431;-73
2024/01/03 12:37:44;;;;;;;0.40;0.10;;;11.20;99.80;;;;;;5120193;27;20758;-74
2024/01/03 12:40:14;;;;;;;0.40;0.10;;;11.10;99.90;;;;;;5117850;27;20452;-73
2024/01/03 12:42:47;;;;;;;0.40;0.10;;;11.00;99.90;;;;;;5123496;27;20497;-74
2024/01/03 12:45:16;;;;;;;0.47;0.15;;;11.00;99.90;;;;;;5123552;27;20733;-74
2024/01/03 12:47:45;;;;;;;0.40;0.10;;;11.00;1.00;;;;;;5121748;27;20840;-74
2024/01/03 12:50:14;;;;;;;0.40;0.10;;;11.10;99.90;;;;;;5119565;27;20424;-74
2024/01/03 12:52:41;;;;;;;0.50;0.10;;;11.20;99.90;;;;;;5131775;27;20771;-74
2024/01/03 12:55:09;;;;;;;0.30;0.10;;;11.10;99.90;;;;;;5129074;27;20568;-73
2024/01/03 12:57:36;;;;;;;1.00;0.20;;;11.20;99.90;;;;;;5130331;27;20903;-73
2024/01/03 13:00:04;;;;;;;0.40;0.10;;;11.30;99.90;;;;;;5124831;27;20430;-73
2024/01/03 13:02:33;;;;;;;0.60;0.20;;;11.30;99.90;;;;;;5134681;27;20418;-73
2024/01/03 13:05:07;;;;;;;0.30;0.10;;;11.30;91.10;;;;;;5129582;27;20438;-73
2024/01/03 13:07:35;;;;;;;0.40;0.20;;;11.30;4.80;;;;;;5134193;27;20458;-73
2024/01/03 13:10:02;;;;;;;0.30;0.10;;;11.40;99.90;;;;;;5133820;27;20437;-73